createdAt,value
2022-08-07T00:00:25.401Z,2.58
2022-08-07T00:02:53.715Z,2.42
2022-08-07T00:05:20.756Z,2.40
2022-08-07T00:07:58.228Z,2.40
2022-08-07T00:10:30.438Z,2.30
2022-08-07T00:13:03.323Z,2.50
2022-08-07T00:15:50.875Z,2.60
2022-08-07T00:18:24.039Z,2.88
2022-08-07T00:20:57.571Z,3.00
2022-08-07T00:23:30.097Z,2.47
2022-08-07T00:26:00.156Z,2.58
2022-08-07T00:28:34.079Z,2.33
2022-08-07T00:31:04.432Z,2.85
2022-08-07T00:33:33.594Z,2.53
2022-08-07T00:36:00.268Z,2.80
2022-08-07T00:38:31.166Z,2.70
2022-08-07T00:40:59.344Z,2.50
2022-08-07T00:44:01.339Z,2.90
2022-08-07T00:46:13.150Z,2.40
2022-08-07T00:48:42.320Z,2.85
2022-08-07T00:51:10.478Z,2.88
2022-08-07T00:53:39.084Z,3.00
2022-08-07T00:56:18.169Z,2.13
2022-08-07T00:58:47.048Z,2.90
2022-08-07T01:01:17.608Z,2.42
2022-08-07T01:03:55.830Z,2.72
2022-08-07T01:06:25.882Z,2.75
2022-08-07T01:08:53.836Z,2.78
2022-08-07T01:12:10.099Z,2.37
2022-08-07T01:14:10.393Z,2.20
2022-08-07T01:16:37.670Z,2.47
2022-08-07T01:19:18.346Z,2.33
2022-08-07T01:21:53.395Z,2.38
2022-08-07T01:24:22.810Z,2.63
2022-08-07T01:26:51.928Z,2.08
2022-08-07T01:29:20.574Z,2.42
2022-08-07T01:31:49.645Z,2.05
2022-08-07T01:34:18.003Z,2.22
2022-08-07T01:36:52.644Z,2.30
2022-08-07T01:39:39.684Z,2.20
2022-08-07T01:42:40.020Z,2.80
2022-08-07T01:45:02.080Z,2.42
2022-08-07T01:48:18.623Z,2.60
2022-08-07T01:50:16.639Z,2.30
2022-08-07T01:52:54.357Z,2.20
2022-08-07T01:55:28.346Z,2.30
2022-08-07T01:58:05.676Z,2.50
2022-08-07T02:00:38.824Z,2.20
2022-08-07T02:03:21.926Z,2.47
2022-08-07T02:06:08.834Z,1.92
2022-08-07T02:08:54.546Z,2.42
2022-08-07T02:12:04.029Z,2.30
2022-08-07T02:14:09.919Z,2.15
2022-08-07T02:16:42.636Z,2.13
2022-08-07T02:20:04.768Z,2.08
2022-08-07T02:22:02.758Z,2.00
2022-08-07T02:24:30.332Z,1.90
2022-08-07T02:27:01.425Z,2.42
2022-08-07T02:29:31.457Z,1.80
2022-08-07T02:32:00.158Z,2.00
2022-08-07T02:34:28.406Z,2.13
2022-08-07T02:36:57.987Z,1.90
2022-08-07T02:39:43.817Z,2.05
2022-08-07T02:42:16.417Z,1.60
2022-08-07T02:44:48.033Z,1.58
2022-08-07T02:47:23.783Z,1.80
2022-08-07T02:49:57.568Z,1.73
2022-08-07T02:53:03.429Z,2.00
2022-08-07T02:56:02.503Z,1.70
2022-08-07T02:58:22.400Z,1.70
2022-08-07T03:00:57.447Z,1.70
2022-08-07T03:03:29.658Z,1.70
2022-08-07T03:06:16.393Z,1.65
2022-08-07T03:08:52.802Z,1.50
2022-08-07T03:11:20.458Z,1.80
2022-08-07T03:13:57.680Z,1.80
2022-08-07T03:16:30.394Z,1.73
2022-08-07T03:19:01.485Z,1.60
2022-08-07T03:21:29.147Z,1.13
2022-08-07T03:24:20.465Z,1.65
2022-08-07T03:26:58.385Z,1.55
2022-08-07T03:29:33.795Z,1.48
2022-08-07T03:32:05.198Z,1.52
2022-08-07T03:34:39.123Z,1.53
2022-08-07T03:37:12.643Z,1.55
2022-08-07T03:39:59.159Z,1.67
2022-08-07T03:42:27.204Z,1.27
2022-08-07T03:44:58.001Z,1.27
2022-08-07T03:47:26.131Z,1.40
2022-08-07T03:49:57.758Z,1.20
2022-08-07T03:52:27.722Z,1.38
2022-08-07T03:54:59.176Z,1.20
2022-08-07T03:58:34.611Z,1.40
2022-08-07T04:00:30.642Z,1.47
2022-08-07T04:03:03.759Z,0.93
2022-08-07T04:05:40.996Z,1.30
2022-08-07T04:08:16.055Z,1.20
2022-08-07T04:10:54.129Z,1.02
2022-08-07T04:14:14.052Z,1.23
2022-08-07T04:16:31.358Z,1.10
2022-08-07T04:19:01.631Z,1.20
2022-08-07T04:21:33.332Z,1.02
2022-08-07T04:24:06.070Z,1.13
2022-08-07T04:26:34.792Z,0.90
2022-08-07T04:29:03.177Z,1.10
2022-08-07T04:32:02.702Z,1.20
2022-08-07T04:34:24.077Z,0.90
2022-08-07T04:37:00.845Z,1.02
2022-08-07T04:39:29.292Z,1.07
2022-08-07T04:42:04.035Z,0.93
2022-08-07T04:44:30.950Z,1.05
2022-08-07T04:47:56.787Z,0.90
2022-08-07T04:50:12.493Z,1.02
2022-08-07T04:52:51.807Z,0.93
2022-08-07T04:58:16.316Z,1.10
2022-08-07T04:59:18.532Z,1.05
2022-08-07T05:02:08.945Z,0.90
2022-08-07T05:05:52.042Z,1.00
2022-08-07T05:08:58.910Z,0.97
2022-08-07T05:11:58.510Z,0.98
2022-08-07T05:14:55.986Z,0.88
2022-08-07T05:17:52.803Z,1.00
2022-08-07T05:20:10.879Z,1.08
2022-08-07T05:22:39.507Z,0.80
2022-08-07T05:25:08.730Z,1.17
2022-08-07T05:28:16.274Z,1.00
2022-08-07T05:30:42.517Z,1.05
2022-08-07T05:33:11.301Z,0.70
2022-08-07T05:35:42.089Z,0.80
2022-08-07T05:38:11.227Z,0.93
2022-08-07T05:40:42.764Z,1.00
2022-08-07T05:43:18.607Z,0.85
2022-08-07T05:45:48.103Z,0.82
2022-08-07T05:48:16.562Z,0.77
2022-08-07T05:50:44.302Z,0.60
2022-08-07T05:54:08.714Z,0.90
2022-08-07T05:56:02.093Z,0.85
2022-08-07T05:58:37.023Z,0.90
2022-08-07T06:01:10.760Z,0.93
2022-08-07T06:03:56.598Z,0.80
2022-08-07T06:06:29.347Z,0.98
2022-08-07T06:08:57.655Z,0.90
2022-08-07T06:11:25.278Z,0.80
2022-08-07T06:14:13.213Z,0.70
2022-08-07T06:16:40.667Z,0.82
2022-08-07T06:19:08.679Z,0.98
2022-08-07T06:22:16.832Z,0.73
2022-08-07T06:24:45.476Z,0.70
2022-08-07T06:27:44.295Z,0.80
2022-08-07T06:30:31.996Z,0.57
2022-08-07T06:32:58.170Z,0.70
2022-08-07T06:35:24.917Z,0.70
2022-08-07T06:38:08.287Z,0.85
2022-08-07T06:40:54.261Z,0.80
2022-08-07T06:43:23.777Z,0.75
2022-08-07T06:45:50.850Z,0.90
2022-08-07T06:48:25.009Z,0.90
2022-08-07T06:50:54.779Z,0.80
2022-08-07T06:55:27.295Z,0.70
2022-08-07T06:56:15.036Z,0.90
2022-08-07T07:00:12.709Z,0.70
2022-08-07T07:01:44.115Z,0.57
2022-08-07T07:04:28.140Z,0.75
2022-08-07T07:07:00.983Z,0.70
2022-08-07T07:09:31.211Z,0.82
2022-08-07T07:12:25.620Z,0.90
2022-08-07T07:15:08.611Z,0.80
2022-08-07T07:17:52.903Z,0.80
2022-08-07T07:20:27.577Z,0.80
2022-08-07T07:24:10.064Z,0.60
2022-08-07T07:26:32.806Z,0.80
2022-08-07T07:28:48.389Z,0.65
2022-08-07T07:31:57.039Z,0.57
2022-08-07T07:34:31.196Z,0.60
2022-08-07T07:37:14.584Z,0.60
2022-08-07T07:39:55.341Z,0.70
2022-08-07T07:42:32.451Z,0.70
2022-08-07T07:45:02.327Z,0.60
2022-08-07T07:47:42.939Z,0.50
2022-08-07T07:50:34.297Z,0.70
2022-08-07T07:53:13.731Z,0.70
2022-08-07T07:55:57.715Z,0.60
2022-08-07T07:58:40.298Z,0.63
2022-08-07T08:02:02.707Z,0.60
2022-08-07T08:04:10.435Z,0.77
2022-08-07T08:06:52.109Z,0.70
2022-08-07T08:09:20.763Z,0.70
2022-08-07T08:12:01.624Z,0.90
2022-08-07T08:14:36.615Z,0.40
2022-08-07T08:18:36.868Z,0.60
2022-08-07T08:20:19.086Z,0.70
2022-08-07T08:23:08.356Z,0.60
2022-08-07T08:25:56.448Z,0.60
2022-08-07T08:28:37.282Z,0.60
2022-08-07T08:31:14.799Z,0.60
2022-08-07T08:33:48.972Z,0.55
2022-08-07T08:36:25.565Z,0.50
2022-08-07T08:38:57.550Z,0.50
2022-08-07T08:41:57.618Z,0.60
2022-08-07T08:44:53.294Z,0.70
2022-08-07T08:47:57.547Z,0.75
2022-08-07T08:50:39.108Z,0.60
2022-08-07T08:53:16.597Z,0.75
2022-08-07T08:56:02.471Z,0.50
2022-08-07T08:58:54.463Z,0.70
2022-08-07T09:01:40.033Z,0.60
2022-08-07T09:04:26.139Z,0.60
2022-08-07T09:07:01.516Z,0.80
2022-08-07T09:10:14.832Z,0.50
2022-08-07T09:13:14.863Z,0.50
2022-08-07T09:16:22.310Z,0.60
2022-08-07T09:19:52.015Z,0.60
2022-08-07T09:24:32.047Z,0.60
2022-08-07T09:25:24.619Z,0.50
2022-08-07T09:28:05.133Z,0.50
2022-08-07T09:30:37.942Z,0.60
2022-08-07T09:33:40.893Z,0.50
2022-08-07T09:36:21.896Z,0.70
2022-08-07T09:39:52.606Z,0.50
2022-08-07T09:42:11.952Z,0.45
2022-08-07T09:47:25.998Z,0.60
2022-08-07T09:48:29.848Z,0.60
2022-08-07T09:51:25.988Z,0.50
2022-08-07T09:54:03.286Z,0.60
2022-08-07T09:57:14.566Z,0.50
2022-08-07T10:00:06.511Z,0.60
2022-08-07T10:02:57.944Z,0.50
2022-08-07T10:06:17.248Z,0.50
2022-08-07T10:09:23.584Z,0.60
2022-08-07T10:12:34.859Z,0.50
2022-08-07T10:15:30.349Z,0.80
2022-08-07T10:18:27.108Z,0.60
2022-08-07T10:22:12.555Z,0.60
2022-08-07T10:24:26.757Z,0.60
2022-08-07T10:26:53.702Z,0.60
2022-08-07T10:29:51.437Z,0.73
2022-08-07T10:32:52.635Z,0.60
2022-08-07T10:35:56.280Z,0.75
2022-08-07T10:38:36.031Z,0.60
2022-08-07T10:41:51.247Z,0.40
2022-08-07T10:44:39.933Z,0.70
2022-08-07T10:47:54.917Z,0.70
2022-08-07T10:50:25.970Z,0.60
2022-08-07T10:53:27.459Z,0.73
2022-08-07T10:56:20.869Z,0.60
2022-08-07T10:59:38.660Z,0.60
2022-08-07T11:02:33.116Z,0.60
2022-08-07T11:05:35.684Z,0.70
2022-08-07T11:08:41.548Z,0.70
2022-08-07T11:11:14.244Z,0.75
2022-08-07T11:14:43.990Z,0.90
2022-08-07T11:16:54.768Z,0.75
2022-08-07T11:19:27.216Z,0.77
2022-08-07T11:22:18.841Z,0.80
2022-08-07T11:24:59.829Z,0.77
2022-08-07T11:28:01.376Z,0.65
2022-08-07T11:30:41.973Z,0.68
2022-08-07T11:33:58.749Z,0.52
2022-08-07T11:36:31.827Z,0.70
2022-08-07T11:39:23.943Z,0.60
2022-08-07T11:42:05.784Z,0.63
2022-08-07T11:44:52.127Z,0.57
2022-08-07T11:47:56.516Z,0.60
2022-08-07T11:50:57.814Z,0.53
2022-08-07T11:53:43.368Z,0.55
2022-08-07T11:56:56.288Z,0.70
2022-08-07T12:00:11.499Z,0.50
2022-08-07T12:02:52.625Z,0.65
2022-08-07T12:05:58.439Z,0.70
2022-08-07T12:08:44.149Z,1.00
2022-08-07T12:12:09.171Z,1.02
2022-08-07T12:15:00.478Z,0.70
2022-08-07T12:17:58.609Z,1.05
2022-08-07T12:20:51.162Z,1.07
2022-08-07T12:24:06.304Z,0.70
2022-08-07T12:26:29.793Z,1.00
2022-08-07T12:29:11.309Z,0.50
2022-08-07T12:32:02.054Z,0.90
2022-08-07T12:34:34.603Z,1.00
2022-08-07T12:37:08.474Z,0.60
2022-08-07T12:39:52.524Z,0.60
2022-08-07T12:42:27.089Z,0.88
2022-08-07T12:45:04.481Z,0.90
2022-08-07T12:47:45.686Z,0.60
2022-08-07T12:50:34.017Z,0.82
2022-08-07T12:54:02.652Z,0.70
2022-08-07T12:56:31.097Z,0.63
2022-08-07T12:59:00.759Z,0.80
2022-08-07T13:02:01.393Z,0.63
2022-08-07T13:05:02.605Z,0.57
2022-08-07T13:08:33.830Z,0.80
2022-08-07T13:11:06.164Z,0.60
2022-08-07T13:13:51.582Z,0.65
2022-08-07T13:16:36.784Z,0.77
2022-08-07T13:19:45.798Z,0.52
2022-08-07T13:22:34.301Z,0.95
2022-08-07T13:25:23.888Z,0.68
2022-08-07T13:28:13.078Z,0.82
2022-08-07T13:30:52.286Z,0.87
2022-08-07T13:34:31.876Z,0.73
2022-08-07T13:36:17.428Z,0.80
2022-08-07T13:39:28.253Z,0.55
2022-08-07T13:42:00.955Z,0.82
2022-08-07T13:44:34.317Z,0.80
2022-08-07T13:47:09.308Z,0.60
2022-08-07T13:50:33.597Z,0.80
2022-08-07T13:52:38.063Z,0.90
2022-08-07T13:55:26.224Z,0.60
2022-08-07T13:58:27.654Z,0.70
2022-08-07T14:00:58.047Z,0.70
2022-08-07T14:04:05.403Z,0.98
2022-08-07T14:06:17.759Z,0.90
2022-08-07T14:08:48.793Z,0.70
2022-08-07T14:11:23.466Z,0.90
2022-08-07T14:14:02.555Z,0.70
2022-08-07T14:16:38.054Z,1.05
2022-08-07T14:19:10.530Z,0.80
2022-08-07T14:22:03.921Z,0.70
2022-08-07T14:24:41.593Z,0.77
2022-08-07T14:27:16.082Z,0.82
2022-08-07T14:30:11.868Z,1.10
2022-08-07T14:32:55.292Z,1.00
2022-08-07T14:35:45.024Z,0.90
2022-08-07T14:38:26.741Z,0.67
2022-08-07T14:41:02.263Z,0.90
2022-08-07T14:43:55.186Z,0.60
2022-08-07T14:49:57.582Z,0.75
2022-08-07T14:52:04.591Z,0.87
2022-08-07T14:54:42.175Z,1.02
2022-08-07T14:57:19.536Z,0.77
2022-08-07T15:00:05.191Z,0.70
2022-08-07T15:02:34.466Z,0.90
2022-08-07T15:05:03.419Z,0.63
2022-08-07T15:07:51.333Z,0.90
2022-08-07T15:13:18.086Z,0.60
2022-08-07T15:15:53.479Z,0.70
2022-08-07T15:27:09.928Z,0.80
2022-08-07T15:32:38.860Z,0.70
2022-08-07T15:35:14.516Z,0.80
2022-08-07T15:40:38.439Z,0.73
2022-08-07T15:43:33.094Z,0.60
2022-08-07T15:46:31.728Z,0.67
2022-08-07T15:52:01.688Z,0.60
2022-08-07T15:54:39.236Z,0.60
2022-08-07T15:57:28.339Z,0.80
2022-08-07T15:59:59.532Z,0.50
2022-08-07T16:02:46.911Z,0.43
2022-08-07T16:05:17.924Z,0.68
2022-08-07T16:08:33.706Z,0.55
2022-08-07T16:11:04.180Z,0.60
2022-08-07T16:13:58.962Z,0.40
2022-08-07T16:17:15.112Z,0.50
2022-08-07T16:20:00.144Z,0.60
2022-08-07T16:22:55.672Z,0.52
2022-08-07T16:25:54.717Z,0.65
2022-08-07T16:30:07.886Z,0.40
2022-08-07T16:31:51.312Z,0.40
2022-08-07T16:34:32.840Z,0.50
2022-08-07T16:38:02.930Z,0.60
2022-08-07T16:40:28.975Z,0.60
2022-08-07T16:43:03.429Z,0.60
2022-08-07T16:46:33.694Z,0.50
2022-08-07T16:50:28.789Z,0.70
2022-08-07T16:52:51.991Z,0.50
2022-08-07T16:55:08.461Z,0.60
2022-08-07T16:58:03.745Z,0.40
2022-08-07T17:00:41.416Z,0.60
2022-08-07T17:03:15.811Z,0.68
2022-08-07T17:06:34.294Z,0.40
2022-08-07T17:10:06.884Z,0.50
2022-08-07T17:12:44.684Z,0.50
2022-08-07T17:15:16.028Z,0.40
2022-08-07T17:17:47.361Z,0.40
2022-08-07T17:20:33.205Z,0.60
2022-08-07T17:23:14.949Z,0.52
2022-08-07T17:26:22.577Z,0.40
2022-08-07T17:29:06.268Z,0.50
2022-08-07T17:31:44.295Z,0.52
2022-08-07T17:34:57.255Z,0.40
2022-08-07T17:38:09.521Z,0.45
2022-08-07T17:40:54.526Z,0.40
2022-08-07T17:44:01.500Z,0.43
2022-08-07T17:46:52.143Z,0.65
2022-08-07T17:49:24.168Z,0.35
2022-08-07T17:52:12.663Z,0.50
2022-08-07T17:54:54.037Z,0.40
2022-08-07T17:57:59.028Z,0.60
2022-08-07T18:00:34.656Z,0.60
2022-08-07T18:04:04.200Z,0.47
2022-08-07T18:06:36.640Z,0.40
2022-08-07T18:09:06.300Z,0.43
2022-08-07T18:12:17.897Z,0.45
2022-08-07T18:14:54.830Z,0.50
2022-08-07T18:18:47.687Z,0.50
2022-08-07T18:21:12.556Z,0.60
2022-08-07T18:23:41.974Z,0.50
2022-08-07T18:26:05.431Z,0.55
2022-08-07T18:30:07.238Z,0.40
2022-08-07T18:32:09.078Z,0.40
2022-08-07T18:35:00.966Z,0.52
2022-08-07T18:38:57.673Z,0.40
2022-08-07T18:41:03.800Z,0.40
2022-08-07T18:43:49.182Z,0.40
2022-08-07T18:46:43.128Z,0.38
2022-08-07T18:50:19.206Z,0.35
2022-08-07T18:53:06.055Z,0.40
2022-08-07T18:55:55.719Z,0.40
2022-08-07T18:58:34.738Z,0.50
2022-08-07T19:02:16.023Z,0.50
2022-08-07T19:04:09.375Z,0.60
2022-08-07T19:06:53.207Z,0.40
2022-08-07T19:09:56.352Z,0.35
2022-08-07T19:12:21.714Z,0.50
2022-08-07T19:14:55.905Z,0.30
2022-08-07T19:18:00.961Z,0.40
2022-08-07T19:21:09.110Z,0.40
2022-08-07T19:23:58.767Z,0.50
2022-08-07T19:26:43.451Z,0.40
2022-08-07T19:31:05.487Z,0.38
2022-08-07T19:32:27.138Z,0.40
2022-08-07T19:35:00.623Z,0.40
2022-08-07T19:37:55.370Z,0.40
2022-08-07T19:40:18.771Z,0.40
2022-08-07T19:42:58.638Z,0.30
2022-08-07T19:46:05.104Z,0.60
2022-08-07T19:48:18.682Z,0.40
2022-08-07T19:50:53.591Z,0.40
2022-08-07T19:54:35.068Z,0.50
2022-08-07T19:57:51.909Z,0.50
2022-08-07T19:58:58.543Z,0.50
2022-08-07T20:01:52.911Z,0.40
2022-08-07T20:04:31.545Z,0.50
2022-08-07T20:07:09.036Z,0.40
2022-08-07T20:10:35.891Z,0.30
2022-08-07T20:12:35.862Z,0.40
2022-08-07T20:15:15.564Z,0.60
2022-08-07T20:17:56.231Z,0.40
2022-08-07T20:20:31.652Z,0.30
2022-08-07T20:23:23.154Z,0.40
2022-08-07T20:25:51.094Z,0.47
2022-08-07T20:28:29.479Z,0.40
2022-08-07T20:30:57.159Z,0.40
2022-08-07T20:33:37.493Z,0.50
2022-08-07T20:36:08.352Z,0.40
2022-08-07T20:38:59.675Z,0.50
2022-08-07T20:41:34.070Z,0.60
2022-08-07T20:44:10.470Z,0.40
2022-08-07T20:46:43.746Z,0.40
2022-08-07T20:49:58.311Z,0.43
2022-08-07T20:52:07.812Z,0.40
2022-08-07T20:54:45.701Z,0.30
2022-08-07T20:57:59.981Z,0.50
2022-08-07T21:00:44.114Z,0.40
2022-08-07T21:03:19.156Z,0.47
2022-08-07T21:05:57.126Z,0.40
2022-08-07T21:08:36.854Z,0.50
2022-08-07T21:11:10.956Z,0.40
2022-08-07T21:14:20.305Z,0.50
2022-08-07T21:16:36.292Z,0.40
2022-08-07T21:19:06.359Z,0.40
2022-08-07T21:21:57.219Z,0.40
2022-08-07T21:24:42.257Z,0.40
2022-08-07T21:27:39.998Z,0.40
2022-08-07T21:30:16.739Z,0.40
2022-08-07T21:32:55.558Z,0.40
2022-08-07T21:36:03.985Z,0.40
2022-08-07T21:38:37.688Z,0.50
2022-08-07T21:41:38.415Z,0.40
2022-08-07T21:44:30.880Z,0.40
2022-08-07T21:47:17.363Z,0.40
2022-08-07T21:50:01.991Z,0.40
2022-08-07T21:52:41.916Z,0.50
2022-08-07T21:55:19.263Z,0.40
2022-08-07T21:58:06.672Z,0.50
2022-08-07T22:00:35.400Z,0.50
2022-08-07T22:03:31.741Z,0.50
2022-08-07T22:06:29.902Z,0.45
2022-08-07T22:09:07.859Z,0.70
2022-08-07T22:12:05.792Z,0.50
2022-08-07T22:14:36.438Z,0.45
2022-08-07T22:17:05.008Z,0.50
2022-08-07T22:20:04.329Z,0.40
2022-08-07T22:23:08.370Z,0.40
2022-08-07T22:25:51.163Z,0.40
2022-08-07T22:28:53.212Z,0.50
2022-08-07T22:31:56.456Z,0.50
2022-08-07T22:34:19.844Z,0.40
2022-08-07T22:37:12.518Z,0.40
2022-08-07T22:39:57.491Z,0.40
2022-08-07T22:42:29.470Z,0.60
2022-08-07T22:45:02.213Z,0.40
2022-08-07T22:48:31.360Z,0.35
2022-08-07T22:51:23.599Z,0.57
2022-08-07T22:54:12.183Z,0.45
2022-08-07T22:56:45.607Z,0.45
2022-08-07T22:59:49.806Z,0.50
2022-08-07T23:02:32.406Z,0.50
2022-08-07T23:06:08.179Z,0.50
2022-08-07T23:08:22.627Z,0.40
2022-08-07T23:11:13.167Z,0.50
2022-08-07T23:14:10.586Z,0.50
2022-08-07T23:17:00.825Z,0.40
2022-08-07T23:20:51.437Z,0.52
2022-08-07T23:24:06.589Z,0.40
2022-08-07T23:26:38.256Z,0.50
2022-08-07T23:29:16.633Z,0.60
2022-08-07T23:34:22.180Z,0.50
2022-08-07T23:35:01.121Z,0.60
2022-08-07T23:38:00.904Z,0.50
2022-08-07T23:40:41.980Z,0.45
2022-08-07T23:43:37.926Z,0.60
2022-08-07T23:46:38.553Z,0.55
2022-08-07T23:49:22.971Z,0.65
2022-08-07T23:53:05.707Z,0.43
2022-08-07T23:55:52.233Z,0.50
2022-08-07T23:58:34.802Z,0.47
